Time;durP1;ratioP1;P1;durP2;ratioP2;P2;SDS_P1;SDS_P2;PMS_P1;PMS_P2;Temp;Humidity;BMP_temperature;BMP_pressure;BME280_temperature;BME280_humidity;BME280_pressure;Samples;Min_cycle;Max_cycle;Signal;HPM_P1;HPM_P2
2022/03/10 00:02:02;;;;;;;0.80;0.80;;;4.10;99.90;;;;;;4442781;32;20077;-65
2022/03/10 00:04:28;;;;;;;1.62;1.25;;;4.10;99.90;;;;;;4443370;32;20168;-65
2022/03/10 00:06:53;;;;;;;1.62;1.52;;;4.10;99.90;;;;;;4442608;32;20073;-65
2022/03/10 00:09:19;;;;;;;1.40;1.05;;;4.00;99.90;;;;;;4443781;32;20078;-65
2022/03/10 00:11:46;;;;;;;0.95;0.93;;;4.00;99.90;;;;;;4442204;32;20069;-65
2022/03/10 00:14:12;;;;;;;0.50;0.50;;;3.90;99.90;;;;;;4444947;32;20408;-65
2022/03/10 00:16:38;;;;;;;12.23;1.52;;;3.90;99.90;;;;;;4447104;32;20532;-65
2022/03/10 00:19:03;;;;;;;0.77;0.77;;;3.90;99.90;;;;;;4442609;32;20069;-65
2022/03/10 00:21:29;;;;;;;2.42;1.33;;;4.00;99.90;;;;;;4442808;32;20120;-65
2022/03/10 00:23:54;;;;;;;0.70;0.70;;;3.90;99.90;;;;;;4444077;32;20441;-65
2022/03/10 00:26:20;;;;;;;1.17;1.12;;;4.00;99.90;;;;;;4445661;32;20085;-66
2022/03/10 00:28:45;;;;;;;1.75;1.10;;;4.10;99.90;;;;;;4443543;32;20077;-65
2022/03/10 00:31:11;;;;;;;1.95;1.08;;;4.20;99.90;;;;;;4444656;32;20081;-65
2022/03/10 00:33:36;;;;;;;1.08;1.08;;;4.20;99.90;;;;;;4444342;32;20583;-65
2022/03/10 00:36:02;;;;;;;3.40;1.40;;;4.20;99.90;;;;;;4439785;32;20096;-65
2022/03/10 00:38:27;;;;;;;0.70;0.70;;;4.20;99.90;;;;;;4442878;32;20115;-65
2022/03/10 00:40:52;;;;;;;1.77;1.00;;;4.10;99.90;;;;;;4443844;32;20423;-65
2022/03/10 00:43:18;;;;;;;0.60;0.60;;;4.10;99.90;;;;;;4442936;32;20060;-65
2022/03/10 00:45:43;;;;;;;2.17;0.93;;;4.00;99.90;;;;;;4442203;32;20088;-65
2022/03/10 00:48:09;;;;;;;0.80;0.80;;;4.00;99.90;;;;;;4444844;32;20073;-65
2022/03/10 00:50:35;;;;;;;0.95;0.95;;;4.00;99.90;;;;;;4443285;32;20065;-65
2022/03/10 00:53:00;;;;;;;1.23;0.93;;;3.80;99.90;;;;;;4444111;32;20572;-65
2022/03/10 00:55:26;;;;;;;2.00;1.17;;;3.70;99.90;;;;;;4446255;32;20132;-65
2022/03/10 00:57:51;;;;;;;7.32;1.60;;;3.60;99.90;;;;;;4442876;32;20125;-65
2022/03/10 01:00:18;;;;;;;0.98;0.98;;;3.70;99.90;;;;;;4441648;32;20069;-65
2022/03/10 01:02:44;;;;;;;2.78;0.80;;;3.70;99.90;;;;;;4441613;32;20077;-65
2022/03/10 01:05:10;;;;;;;2.15;1.35;;;3.60;99.90;;;;;;4440248;32;20138;-65
2022/03/10 01:07:36;;;;;;;0.85;0.82;;;3.50;99.90;;;;;;4440230;32;20060;-65
2022/03/10 01:10:04;;;;;;;0.57;0.57;;;3.50;99.90;;;;;;4441506;32;20125;-65
2022/03/10 01:12:30;;;;;;;1.15;1.05;;;3.50;99.90;;;;;;4439945;32;20080;-65
2022/03/10 01:14:55;;;;;;;1.98;0.95;;;3.50;99.90;;;;;;4442691;32;20081;-65
2022/03/10 01:17:21;;;;;;;0.90;0.85;;;3.50;99.90;;;;;;4440000;32;20562;-66
2022/03/10 01:19:47;;;;;;;1.58;1.48;;;3.50;99.90;;;;;;4444371;32;20138;-65
2022/03/10 01:22:12;;;;;;;0.62;0.62;;;3.50;99.90;;;;;;4440385;32;20533;-65
2022/03/10 01:24:39;;;;;;;1.85;1.33;;;3.40;99.90;;;;;;4442330;32;20521;-65
2022/03/10 01:27:05;;;;;;;1.58;1.15;;;3.40;99.90;;;;;;4442288;32;21238;-66
2022/03/10 01:29:30;;;;;;;0.70;0.70;;;3.30;99.90;;;;;;4441839;32;20073;-65
2022/03/10 01:31:55;;;;;;;1.42;1.08;;;3.30;99.90;;;;;;4439495;32;20056;-65
2022/03/10 01:34:21;;;;;;;2.25;1.17;;;3.40;99.90;;;;;;4442562;32;20080;-65
2022/03/10 01:36:46;;;;;;;2.22;1.35;;;3.40;99.90;;;;;;4440829;32;20180;-65
2022/03/10 01:39:12;;;;;;;0.50;0.50;;;3.40;99.90;;;;;;4437036;32;20082;-65
2022/03/10 01:41:38;;;;;;;2.80;1.05;;;3.40;99.90;;;;;;4440243;32;20069;-65
2022/03/10 01:44:08;;;;;;;0.60;0.60;;;3.30;99.90;;;;;;4442410;32;20427;-65
2022/03/10 01:46:34;;;;;;;1.02;0.85;;;3.20;99.90;;;;;;4427167;32;20092;-65
2022/03/10 01:49:00;;;;;;;2.53;0.88;;;3.30;99.90;;;;;;4440558;32;20088;-65
2022/03/10 01:51:26;;;;;;;0.70;0.70;;;3.30;99.90;;;;;;4442752;32;20088;-65
2022/03/10 01:53:52;;;;;;;4.72;1.67;;;3.30;99.90;;;;;;4440734;32;20569;-65
2022/03/10 01:56:19;;;;;;;1.30;1.20;;;3.40;99.90;;;;;;4440990;32;20093;-65
2022/03/10 01:58:46;;;;;;;0.77;0.70;;;3.40;99.90;;;;;;4442524;32;20070;-65
2022/03/10 02:01:12;;;;;;;0.65;0.65;;;3.30;99.90;;;;;;4439508;32;20098;-70
2022/03/10 02:03:38;;;;;;;1.05;1.05;;;3.30;99.90;;;;;;4440363;32;20422;-65
2022/03/10 02:06:04;;;;;;;5.40;1.30;;;3.30;99.90;;;;;;4441348;32;20069;-65
2022/03/10 02:10:30;;;;;;;0.60;0.60;;;3.30;99.90;;;;;;4440820;32;20077;-65
2022/03/10 02:11:16;;;;;;;1.23;1.12;;;3.30;99.90;;;;;;4437789;32;20065;-65
2022/03/10 02:13:41;;;;;;;2.15;1.27;;;3.40;99.90;;;;;;4440935;32;20060;-65
2022/03/10 02:17:26;;;;;;;11.80;2.17;;;3.30;99.90;;;;;;4440765;32;20088;-65
2022/03/10 02:18:56;;;;;;;1.52;1.42;;;3.20;99.90;;;;;;4427458;32;20656;-65
2022/03/10 02:21:23;;;;;;;0.88;0.88;;;3.20;99.90;;;;;;4441099;32;20525;-65
2022/03/10 02:23:48;;;;;;;1.73;1.27;;;3.20;99.90;;;;;;4440003;32;20533;-65
2022/03/10 02:26:15;;;;;;;3.65;1.65;;;3.10;99.90;;;;;;4442060;32;20061;-65
2022/03/10 02:28:42;;;;;;;0.68;0.68;;;3.10;99.90;;;;;;4427172;32;20562;-65
2022/03/10 02:31:08;;;;;;;1.85;1.52;;;3.10;99.90;;;;;;4440205;32;20097;-65
2022/03/10 02:33:34;;;;;;;0.70;0.70;;;3.10;99.90;;;;;;4441214;32;20491;-65
2022/03/10 02:36:00;;;;;;;1.30;1.20;;;3.00;99.90;;;;;;4440444;32;20076;-65
2022/03/10 02:38:25;;;;;;;1.00;0.95;;;3.10;99.90;;;;;;4442354;32;20116;-65
2022/03/10 02:40:51;;;;;;;2.90;2.15;;;3.10;99.90;;;;;;4441893;32;20077;-65
2022/03/10 02:43:18;;;;;;;1.58;1.30;;;3.20;99.90;;;;;;4444341;32;20138;-65
2022/03/10 02:45:45;;;;;;;1.20;1.10;;;3.10;99.90;;;;;;4439683;32;20073;-65
2022/03/10 02:48:11;;;;;;;3.03;0.80;;;3.10;99.90;;;;;;4440133;32;20127;-65
2022/03/10 02:50:36;;;;;;;3.83;1.62;;;3.10;99.90;;;;;;4439709;32;20081;-65
2022/03/10 02:53:02;;;;;;;0.60;0.60;;;3.10;99.90;;;;;;4440731;32;21419;-65
2022/03/10 02:55:28;;;;;;;0.82;0.82;;;3.10;99.90;;;;;;4442425;32;20549;-65
2022/03/10 02:57:54;;;;;;;1.75;1.37;;;3.00;99.90;;;;;;4440375;32;20057;-65
2022/03/10 03:00:19;;;;;;;1.02;1.02;;;3.00;99.90;;;;;;4439076;32;20077;-65
2022/03/10 03:02:46;;;;;;;1.20;1.10;;;2.90;99.90;;;;;;4439311;32;20142;-65
2022/03/10 03:05:12;;;;;;;14.60;1.42;;;2.90;99.90;;;;;;4439320;32;20423;-65
2022/03/10 03:07:38;;;;;;;6.60;1.83;;;2.90;99.90;;;;;;4440695;32;20066;-65
2022/03/10 03:10:05;;;;;;;1.50;1.12;;;2.90;99.90;;;;;;4440023;32;20113;-65
2022/03/10 03:12:32;;;;;;;1.25;1.20;;;2.90;99.90;;;;;;4440317;32;20060;-65
2022/03/10 03:14:58;;;;;;;1.33;1.23;;;2.80;99.90;;;;;;4441803;32;20060;-65
2022/03/10 03:17:25;;;;;;;4.40;2.25;;;2.90;99.90;;;;;;4439468;32;20061;-65
2022/03/10 03:19:51;;;;;;;1.92;1.42;;;2.90;99.90;;;;;;4438911;32;20077;-65
2022/03/10 03:22:17;;;;;;;3.03;1.30;;;2.90;99.90;;;;;;4439910;32;20639;-65
2022/03/10 03:24:44;;;;;;;1.85;1.62;;;2.80;99.90;;;;;;4440711;32;20077;-65
2022/03/10 03:27:11;;;;;;;0.80;0.75;;;2.70;99.90;;;;;;4439156;32;20085;-65
2022/03/10 03:29:36;;;;;;;0.98;0.98;;;2.80;99.90;;;;;;4445450;32;20089;-65
2022/03/10 03:32:02;;;;;;;3.12;1.58;;;2.70;99.90;;;;;;4415770;32;20525;-65
2022/03/10 03:34:27;;;;;;;0.62;0.62;;;2.70;99.90;;;;;;4442018;32;20151;-65
2022/03/10 03:36:53;;;;;;;3.78;1.48;;;2.60;99.90;;;;;;4445406;32;20557;-65
2022/03/10 03:39:19;;;;;;;2.67;2.20;;;2.60;99.90;;;;;;4443250;32;20576;-65
2022/03/10 03:41:45;;;;;;;4.70;2.70;;;2.60;99.90;;;;;;4444365;32;20098;-65
2022/03/10 03:44:10;;;;;;;1.05;0.98;;;2.60;99.90;;;;;;4444054;32;20489;-65
2022/03/10 03:46:37;;;;;;;3.95;2.40;;;2.60;99.90;;;;;;4441712;32;20103;-65
2022/03/10 03:49:03;;;;;;;1.77;1.17;;;2.70;99.90;;;;;;4444299;32;20077;-65
2022/03/10 03:51:28;;;;;;;5.32;1.55;;;2.60;99.90;;;;;;4444010;32;20096;-65
2022/03/10 03:53:54;;;;;;;2.50;2.00;;;2.50;99.90;;;;;;4445867;32;20065;-65
2022/03/10 03:56:19;;;;;;;1.05;1.02;;;2.50;99.90;;;;;;4453937;32;20328;-65
2022/03/10 03:58:44;;;;;;;0.90;0.90;;;2.60;99.90;;;;;;4444305;32;20105;-65
2022/03/10 04:01:10;;;;;;;2.08;1.87;;;2.60;99.90;;;;;;4444155;32;20084;-65
2022/03/10 04:03:35;;;;;;;0.85;0.82;;;2.60;99.90;;;;;;4443261;32;20076;-65
2022/03/10 04:06:01;;;;;;;2.08;1.37;;;2.50;99.90;;;;;;4444306;32;20473;-65
2022/03/10 04:08:27;;;;;;;1.08;1.08;;;2.50;99.90;;;;;;4442986;32;20064;-65
2022/03/10 04:10:53;;;;;;;0.80;0.77;;;2.50;99.90;;;;;;4443779;32;20072;-65
2022/03/10 04:13:19;;;;;;;3.50;1.15;;;2.40;99.90;;;;;;4443065;32;20081;-65
2022/03/10 04:15:44;;;;;;;1.12;1.10;;;2.50;99.90;;;;;;4440922;32;20110;-65
2022/03/10 04:18:10;;;;;;;4.50;1.52;;;2.50;99.90;;;;;;4442803;32;20422;-65
2022/03/10 04:20:36;;;;;;;1.23;1.12;;;2.50;99.90;;;;;;4441810;32;20118;-65
2022/03/10 04:23:01;;;;;;;4.62;1.17;;;2.50;99.90;;;;;;4441855;32;20068;-65
2022/03/10 04:25:27;;;;;;;1.90;1.23;;;2.50;99.90;;;;;;4442895;32;20478;-65
2022/03/10 04:27:56;;;;;;;1.10;1.08;;;2.50;99.90;;;;;;4442628;32;20061;-65
2022/03/10 04:30:22;;;;;;;1.12;1.05;;;2.50;99.90;;;;;;4443551;32;20096;-65
2022/03/10 04:32:49;;;;;;;2.08;1.65;;;2.50;99.90;;;;;;4440437;32;20085;-65
2022/03/10 04:35:16;;;;;;;6.25;1.60;;;2.50;99.90;;;;;;4442952;32;20582;-65
2022/03/10 04:37:43;;;;;;;1.08;1.02;;;2.40;99.90;;;;;;4441795;32;20558;-66
2022/03/10 04:40:09;;;;;;;1.02;0.98;;;2.40;99.90;;;;;;4429695;32;20056;-65
2022/03/10 04:42:37;;;;;;;2.33;1.23;;;2.40;99.90;;;;;;4443595;32;20556;-65
2022/03/10 04:45:03;;;;;;;2.58;1.65;;;2.40;99.90;;;;;;4442814;32;20061;-65
2022/03/10 04:47:28;;;;;;;2.58;1.58;;;2.40;99.90;;;;;;4444779;32;20135;-65
2022/03/10 04:49:55;;;;;;;1.00;1.00;;;2.40;99.90;;;;;;4442263;32;20065;-65
2022/03/10 04:52:21;;;;;;;5.20;2.53;;;2.40;99.90;;;;;;4442528;32;20112;-65
2022/03/10 04:54:46;;;;;;;3.92;2.47;;;2.40;99.90;;;;;;4444467;32;20644;-65
2022/03/10 04:57:11;;;;;;;1.37;1.25;;;2.40;99.90;;;;;;4442968;32;20100;-65
2022/03/10 04:59:37;;;;;;;10.02;3.00;;;2.40;99.90;;;;;;4444763;32;20120;-65
2022/03/10 05:02:03;;;;;;;4.10;1.60;;;2.40;99.90;;;;;;4442000;32;20073;-66
2022/03/10 05:04:28;;;;;;;1.75;1.52;;;2.40;99.90;;;;;;4441883;32;20065;-65
2022/03/10 05:06:54;;;;;;;1.52;1.42;;;2.40;99.90;;;;;;4442831;32;20093;-65
2022/03/10 05:09:19;;;;;;;2.65;1.42;;;2.30;99.90;;;;;;4442963;32;20148;-65
2022/03/10 05:11:45;;;;;;;5.82;0.88;;;2.30;99.90;;;;;;4442378;32;20065;-65
2022/03/10 05:14:10;;;;;;;6.70;2.08;;;2.30;99.90;;;;;;4442056;32;20115;-65
2022/03/10 05:16:36;;;;;;;1.70;1.48;;;2.30;99.90;;;;;;4441991;32;20558;-65
2022/03/10 05:19:01;;;;;;;2.40;1.35;;;2.20;99.90;;;;;;4441777;32;20073;-65
2022/03/10 05:21:27;;;;;;;0.70;0.70;;;2.20;99.90;;;;;;4436022;32;20081;-64
2022/03/10 05:23:52;;;;;;;0.88;0.88;;;2.20;99.90;;;;;;4437564;32;20564;-64
2022/03/10 05:26:18;;;;;;;3.20;1.75;;;2.20;99.90;;;;;;4448709;32;20085;-64
2022/03/10 05:28:45;;;;;;;2.72;1.37;;;2.20;99.90;;;;;;4441157;32;20557;-66
2022/03/10 05:31:10;;;;;;;1.52;1.42;;;2.10;99.90;;;;;;4441643;32;20542;-64
2022/03/10 05:33:36;;;;;;;1.23;1.10;;;2.20;99.90;;;;;;4441875;32;20065;-65
2022/03/10 05:36:01;;;;;;;0.80;0.80;;;2.20;99.90;;;;;;4442774;32;20123;-64
2022/03/10 05:38:27;;;;;;;1.12;1.00;;;2.30;99.90;;;;;;4440646;32;20081;-65
2022/03/10 05:40:53;;;;;;;1.25;1.20;;;2.20;99.90;;;;;;4442047;32;20069;-64
2022/03/10 05:43:18;;;;;;;0.80;0.80;;;2.20;99.90;;;;;;4442638;32;20111;-64
2022/03/10 05:45:44;;;;;;;2.47;1.25;;;2.20;99.90;;;;;;4441126;32;20553;-64
2022/03/10 05:48:09;;;;;;;0.85;0.85;;;2.20;99.90;;;;;;4439137;32;20156;-65
2022/03/10 05:50:35;;;;;;;1.30;1.00;;;2.10;99.90;;;;;;4437959;32;20088;-65
2022/03/10 05:53:01;;;;;;;2.85;1.48;;;2.10;99.90;;;;;;4438462;32;20072;-65
2022/03/10 05:55:26;;;;;;;3.08;2.20;;;2.10;99.90;;;;;;4442754;32;20411;-65
2022/03/10 05:57:52;;;;;;;1.40;1.23;;;2.10;99.90;;;;;;4440132;32;20065;-64
2022/03/10 06:00:18;;;;;;;3.50;1.45;;;2.10;99.90;;;;;;4437660;32;20077;-64
2022/03/10 06:02:44;;;;;;;4.78;2.20;;;2.10;99.90;;;;;;4431233;32;20419;-64
2022/03/10 06:05:09;;;;;;;1.58;0.88;;;2.10;99.90;;;;;;4433649;32;20073;-64
2022/03/10 06:07:35;;;;;;;5.68;2.55;;;2.10;99.90;;;;;;4438129;32;20138;-64
2022/03/10 06:10:01;;;;;;;2.80;1.62;;;2.20;99.90;;;;;;4440010;32;20583;-64
2022/03/10 06:12:27;;;;;;;2.47;1.98;;;2.30;99.90;;;;;;4436556;32;20061;-64
2022/03/10 06:14:55;;;;;;;9.27;2.70;;;2.30;99.90;;;;;;4439175;32;20085;-64
2022/03/10 06:17:20;;;;;;;1.50;1.40;;;2.40;99.90;;;;;;4424964;32;20160;-64
2022/03/10 06:19:46;;;;;;;1.45;1.35;;;2.40;99.90;;;;;;4432992;32;20129;-64
2022/03/10 06:22:16;;;;;;;1.23;1.12;;;2.50;99.90;;;;;;4439505;32;20069;-65
2022/03/10 06:24:44;;;;;;;8.00;3.23;;;2.50;99.90;;;;;;4438259;32;20069;-65
2022/03/10 06:27:10;;;;;;;1.20;1.00;;;2.40;99.90;;;;;;4423727;32;20077;-64
2022/03/10 06:29:38;;;;;;;3.37;2.45;;;2.50;99.90;;;;;;4433280;32;20395;-65
2022/03/10 06:32:04;;;;;;;1.45;1.35;;;2.50;99.90;;;;;;4409254;32;20140;-65
2022/03/10 06:34:30;;;;;;;1.60;1.50;;;2.60;99.90;;;;;;4432565;32;21147;-65
2022/03/10 06:36:57;;;;;;;1.40;1.30;;;2.70;99.90;;;;;;4433661;32;20125;-64
2022/03/10 06:39:23;;;;;;;3.45;1.92;;;2.70;99.90;;;;;;4432068;32;20845;-66
2022/03/10 06:41:49;;;;;;;9.18;2.97;;;2.70;99.90;;;;;;4433814;32;20109;-65
2022/03/10 06:44:15;;;;;;;2.10;1.23;;;2.80;99.90;;;;;;4429664;32;20081;-65
2022/03/10 06:46:42;;;;;;;1.00;0.88;;;2.90;99.90;;;;;;4422648;32;20110;-65
2022/03/10 06:49:07;;;;;;;0.70;0.70;;;2.90;99.90;;;;;;4425625;32;21145;-65
2022/03/10 06:51:33;;;;;;;1.42;1.33;;;3.00;99.90;;;;;;4425332;32;20093;-66
2022/03/10 06:53:58;;;;;;;4.07;1.58;;;3.00;99.90;;;;;;4410848;32;20254;-66
2022/03/10 06:56:25;;;;;;;1.10;1.02;;;3.10;99.90;;;;;;4410161;32;20278;-66
2022/03/10 06:58:50;;;;;;;2.12;1.70;;;3.20;99.90;;;;;;4414386;32;21584;-66
2022/03/10 07:01:16;;;;;;;1.67;1.45;;;3.30;99.90;;;;;;4412528;32;20076;-66
2022/03/10 07:03:42;;;;;;;1.33;1.23;;;3.40;99.90;;;;;;4410613;32;20089;-65
2022/03/10 07:06:08;;;;;;;1.10;1.05;;;3.50;99.90;;;;;;4412714;32;20097;-66
2022/03/10 07:08:34;;;;;;;1.45;1.23;;;3.70;99.90;;;;;;4411849;32;20096;-66
2022/03/10 07:10:59;;;;;;;2.62;1.95;;;3.90;99.90;;;;;;4409069;32;20576;-65
2022/03/10 07:13:25;;;;;;;1.95;0.95;;;4.00;99.90;;;;;;4403994;32;20504;-66
2022/03/10 07:15:50;;;;;;;2.17;1.20;;;4.20;99.90;;;;;;4404504;32;20311;-65
2022/03/10 07:18:16;;;;;;;2.08;1.87;;;4.10;99.90;;;;;;4418517;32;20643;-66
2022/03/10 07:20:41;;;;;;;6.12;3.70;;;4.20;99.90;;;;;;4413905;32;20116;-66
2022/03/10 07:23:07;;;;;;;3.03;1.48;;;4.30;99.90;;;;;;4409323;32;20222;-66
2022/03/10 07:25:32;;;;;;;1.45;1.25;;;4.30;99.90;;;;;;4398248;32;20097;-66
2022/03/10 07:27:58;;;;;;;3.37;1.58;;;4.20;99.90;;;;;;4400783;32;20735;-66
2022/03/10 07:30:23;;;;;;;2.45;1.23;;;4.30;99.90;;;;;;4398388;32;20612;-66
2022/03/10 07:32:49;;;;;;;5.15;1.65;;;4.50;99.90;;;;;;4404912;32;20100;-66
2022/03/10 07:35:14;;;;;;;3.10;1.42;;;4.60;99.90;;;;;;4404805;32;83916;-65
2022/03/10 07:37:40;;;;;;;3.28;2.17;;;4.50;99.90;;;;;;4402986;32;20519;-65
2022/03/10 07:40:06;;;;;;;2.00;1.52;;;4.70;99.90;;;;;;4401134;32;21642;-65
2022/03/10 07:42:32;;;;;;;1.20;1.10;;;4.70;99.90;;;;;;4396067;32;20159;-64
2022/03/10 07:44:57;;;;;;;2.22;1.87;;;4.80;99.90;;;;;;4407105;32;20073;-65
2022/03/10 07:47:23;;;;;;;0.50;0.50;;;4.80;99.90;;;;;;4416042;32;20419;-64
2022/03/10 07:49:48;;;;;;;1.20;1.10;;;4.80;99.90;;;;;;4409393;32;20083;-65
2022/03/10 07:52:14;;;;;;;1.75;1.17;;;5.00;99.90;;;;;;4407971;32;20061;-66
2022/03/10 07:54:39;;;;;;;3.05;2.10;;;5.10;99.90;;;;;;4413996;32;20108;-65
2022/03/10 07:57:05;;;;;;;27.08;2.20;;;5.20;99.90;;;;;;4406656;32;20100;-65
2022/03/10 07:59:30;;;;;;;4.90;2.45;;;5.20;99.90;;;;;;4403319;32;20103;-66
2022/03/10 08:01:55;;;;;;;0.90;0.90;;;5.20;99.90;;;;;;4401363;32;20213;-65
2022/03/10 08:04:21;;;;;;;13.30;1.73;;;5.20;99.90;;;;;;4406762;32;20955;-65
2022/03/10 08:06:47;;;;;;;1.48;1.37;;;5.40;99.90;;;;;;4407761;32;20077;-65
2022/03/10 08:09:13;;;;;;;1.23;1.12;;;5.40;99.90;;;;;;4407349;32;20073;-65
2022/03/10 08:11:39;;;;;;;1.95;1.17;;;5.40;99.90;;;;;;4408848;32;20135;-65
2022/03/10 08:14:06;;;;;;;2.00;1.67;;;5.40;99.90;;;;;;4410721;32;20682;-65
2022/03/10 08:16:32;;;;;;;2.15;1.52;;;5.40;99.90;;;;;;4418745;32;20109;-65
2022/03/10 08:18:58;;;;;;;3.90;1.62;;;5.50;99.90;;;;;;4416810;32;20084;-65
2022/03/10 08:21:24;;;;;;;2.15;1.42;;;5.80;99.90;;;;;;4417099;32;20173;-65
2022/03/10 08:23:50;;;;;;;2.12;1.50;;;6.00;99.90;;;;;;4415999;32;20514;-65
2022/03/10 08:26:17;;;;;;;1.58;1.05;;;5.90;99.90;;;;;;4408809;32;20819;-65
2022/03/10 08:28:43;;;;;;;2.67;1.62;;;6.00;99.90;;;;;;4414977;32;20148;-65
2022/03/10 08:31:10;;;;;;;4.20;1.27;;;6.00;99.90;;;;;;4423372;32;21156;-65
2022/03/10 08:33:37;;;;;;;22.83;1.45;;;6.10;99.90;;;;;;4424130;32;20085;-65
2022/03/10 08:36:05;;;;;;;0.80;0.80;;;6.20;99.90;;;;;;4406847;32;20426;-65
2022/03/10 08:38:31;;;;;;;1.17;1.10;;;6.30;99.90;;;;;;4416053;32;20379;-65
2022/03/10 08:40:57;;;;;;;1.52;1.10;;;6.30;99.90;;;;;;4419193;32;20211;-65
2022/03/10 08:43:28;;;;;;;3.25;1.52;;;6.40;99.90;;;;;;4422845;32;20138;-65
2022/03/10 08:45:54;;;;;;;0.85;0.85;;;6.60;99.90;;;;;;4425678;32;20070;-65
2022/03/10 08:48:19;;;;;;;2.58;1.55;;;6.80;99.90;;;;;;4421668;32;20138;-65
2022/03/10 08:50:44;;;;;;;8.30;2.58;;;6.80;99.90;;;;;;4420831;32;20656;-65
2022/03/10 08:53:11;;;;;;;2.87;2.22;;;6.90;99.90;;;;;;4417582;32;20163;-65
2022/03/10 08:55:36;;;;;;;6.03;2.30;;;7.00;99.90;;;;;;4417168;32;20118;-65
2022/03/10 08:58:02;;;;;;;1.12;1.02;;;6.90;99.90;;;;;;4414545;32;20827;-65
2022/03/10 09:00:28;;;;;;;3.20;1.67;;;7.00;99.90;;;;;;4424037;32;20566;-65
2022/03/10 09:02:53;;;;;;;14.85;2.75;;;6.90;99.90;;;;;;4413014;32;20730;-65
2022/03/10 09:05:19;;;;;;;2.62;1.50;;;7.20;99.90;;;;;;4408593;32;20120;-66
2022/03/10 09:07:44;;;;;;;8.23;2.80;;;7.40;99.90;;;;;;4415373;32;20151;-66
2022/03/10 09:10:11;;;;;;;4.47;1.70;;;7.60;99.90;;;;;;4421917;32;20161;-66
2022/03/10 09:12:37;;;;;;;5.93;2.12;;;7.60;99.90;;;;;;4413496;32;20529;-66
2022/03/10 09:15:04;;;;;;;3.03;2.47;;;7.80;99.90;;;;;;4417609;32;20090;-66
2022/03/10 09:17:29;;;;;;;4.28;1.40;;;7.80;99.90;;;;;;4418095;32;20073;-66
2022/03/10 09:19:55;;;;;;;4.60;2.85;;;7.90;99.90;;;;;;4419096;32;20080;-66
2022/03/10 09:22:22;;;;;;;2.70;1.67;;;8.00;99.90;;;;;;4418542;32;20921;-65
2022/03/10 09:24:48;;;;;;;5.72;2.15;;;8.10;99.90;;;;;;4416128;32;20081;-64
2022/03/10 09:27:13;;;;;;;11.05;2.12;;;8.30;99.90;;;;;;4414133;32;20516;-65
2022/03/10 09:29:39;;;;;;;5.82;1.42;;;8.50;99.90;;;;;;4418889;32;20092;-65
2022/03/10 09:32:04;;;;;;;2.80;1.85;;;8.40;99.90;;;;;;4419972;32;20086;-65
2022/03/10 09:34:30;;;;;;;4.60;1.60;;;8.60;99.90;;;;;;4420701;32;20560;-65
2022/03/10 09:36:55;;;;;;;3.37;2.03;;;8.80;99.90;;;;;;4412229;32;20106;-65
2022/03/10 09:39:21;;;;;;;5.07;2.22;;;8.90;99.90;;;;;;4421898;32;20427;-65
2022/03/10 09:41:46;;;;;;;3.08;1.77;;;9.00;99.90;;;;;;4413966;32;20065;-66
2022/03/10 09:44:15;;;;;;;14.73;2.05;;;9.20;99.90;;;;;;4408765;32;20081;-65
2022/03/10 09:46:42;;;;;;;3.22;1.98;;;9.20;99.90;;;;;;4417726;32;20072;-65
2022/03/10 09:49:07;;;;;;;2.42;1.55;;;9.40;99.90;;;;;;4417846;32;20130;-65
2022/03/10 09:51:33;;;;;;;2.67;1.98;;;9.40;99.90;;;;;;4417577;32;20081;-65
2022/03/10 09:53:59;;;;;;;5.97;1.45;;;9.30;99.90;;;;;;4418358;32;20123;-65
2022/03/10 09:56:26;;;;;;;1.27;1.17;;;9.60;99.90;;;;;;4416972;32;20076;-66
2022/03/10 09:58:52;;;;;;;2.17;1.25;;;9.80;99.90;;;;;;4423015;32;20501;-65
2022/03/10 10:01:17;;;;;;;1.90;1.12;;;10.00;99.90;;;;;;4414380;32;20139;-66
2022/03/10 10:03:43;;;;;;;0.88;0.65;;;9.90;99.90;;;;;;4417273;32;20089;-66
2022/03/10 10:06:08;;;;;;;7.65;3.83;;;10.10;99.90;;;;;;4416374;32;20172;-66
2022/03/10 10:08:34;;;;;;;68.37;2.67;;;10.30;99.90;;;;;;4420904;32;20109;-65
2022/03/10 10:11:01;;;;;;;11.68;1.73;;;10.30;99.90;;;;;;4419580;32;20065;-65
2022/03/10 10:13:28;;;;;;;3.83;1.92;;;10.30;99.90;;;;;;4418988;32;20074;-65
2022/03/10 10:15:57;;;;;;;12.18;2.67;;;10.30;99.90;;;;;;4407983;32;20185;-66
2022/03/10 10:18:23;;;;;;;2.03;1.58;;;10.50;99.90;;;;;;4422215;32;20085;-67
2022/03/10 10:20:51;;;;;;;10.20;2.92;;;10.50;99.90;;;;;;4420103;32;20610;-65
2022/03/10 10:23:22;;;;;;;1.70;1.10;;;10.70;99.90;;;;;;4415462;32;20443;-64
2022/03/10 10:25:50;;;;;;;2.03;1.12;;;11.00;99.90;;;;;;4421539;32;20080;-65
2022/03/10 10:28:23;;;;;;;0.80;0.80;;;11.00;99.90;;;;;;4417501;32;21690;-64
2022/03/10 10:30:59;;;;;;;2.12;1.17;;;10.90;99.90;;;;;;4418018;32;20159;-66
2022/03/10 10:33:26;;;;;;;5.97;2.10;;;11.00;99.90;;;;;;4417921;32;20077;-66
2022/03/10 10:36:24;;;;;;;4.18;1.58;;;11.00;99.90;;;;;;4412129;32;20100;-65
2022/03/10 10:38:53;;;;;;;9.13;1.90;;;10.90;99.90;;;;;;4421297;32;20096;-65
2022/03/10 10:41:28;;;;;;;1.30;0.95;;;10.90;99.90;;;;;;4420333;32;20164;-65
2022/03/10 10:44:00;;;;;;;19.05;1.15;;;10.90;99.90;;;;;;4416716;32;20348;-65
2022/03/10 10:46:32;;;;;;;3.28;1.60;;;10.80;99.90;;;;;;4418514;32;20307;-65
2022/03/10 10:49:01;;;;;;;1.60;1.00;;;11.00;99.90;;;;;;4406867;32;20326;-65
2022/03/10 10:51:31;;;;;;;5.28;2.05;;;10.90;99.90;;;;;;4408914;32;20073;-65
2022/03/10 10:53:58;;;;;;;3.47;1.20;;;10.90;99.90;;;;;;4415564;32;20065;-65
2022/03/10 10:56:24;;;;;;;5.37;2.67;;;10.90;99.90;;;;;;4414328;32;20094;-65
2022/03/10 10:58:52;;;;;;;1.35;1.15;;;11.00;99.90;;;;;;4407616;32;20080;-65
2022/03/10 11:01:35;;;;;;;1.80;1.17;;;11.20;99.90;;;;;;4408632;32;20202;-65
2022/03/10 11:04:04;;;;;;;1.33;0.85;;;11.20;99.90;;;;;;4409636;32;20537;-65
2022/03/10 11:06:31;;;;;;;4.57;1.50;;;11.20;99.90;;;;;;4424563;32;20069;-65
2022/03/10 11:08:56;;;;;;;1.65;1.55;;;11.10;99.90;;;;;;4422441;32;20089;-65
2022/03/10 11:11:23;;;;;;;11.73;1.62;;;11.10;99.90;;;;;;4419060;32;20718;-65
2022/03/10 11:13:49;;;;;;;1.17;1.10;;;11.00;99.90;;;;;;4422272;32;20575;-65
2022/03/10 11:16:16;;;;;;;1.45;1.35;;;10.90;99.90;;;;;;4416616;32;20479;-65
2022/03/10 11:18:48;;;;;;;4.70;1.67;;;10.60;99.90;;;;;;4412301;32;20072;-66
2022/03/10 11:21:49;;;;;;;3.97;1.33;;;10.50;99.90;;;;;;4414325;32;20116;-65
2022/03/10 11:24:48;;;;;;;1.08;0.93;;;10.40;99.90;;;;;;4416027;32;20556;-66
2022/03/10 11:27:17;;;;;;;0.60;0.60;;;10.60;99.90;;;;;;4420790;32;20085;-66
2022/03/10 11:29:47;;;;;;;1.80;0.98;;;10.60;99.90;;;;;;4415404;32;20066;-66
2022/03/10 11:32:13;;;;;;;6.68;1.95;;;10.60;99.90;;;;;;4423564;32;20746;-65
2022/03/10 11:34:55;;;;;;;1.35;1.17;;;10.80;99.90;;;;;;4425110;32;20159;-66
2022/03/10 11:37:49;;;;;;;0.93;0.93;;;11.30;99.90;;;;;;4421092;32;20578;-66
2022/03/10 11:40:18;;;;;;;1.42;1.33;;;11.70;99.90;;;;;;4424379;32;20077;-66
2022/03/10 11:42:43;;;;;;;2.10;1.10;;;12.20;99.90;;;;;;4423472;32;20447;-66
2022/03/10 11:45:14;;;;;;;1.77;1.00;;;12.50;99.60;;;;;;4423728;32;20088;-66
2022/03/10 11:47:40;;;;;;;0.43;0.43;;;12.40;99.70;;;;;;4427629;32;20127;-66
2022/03/10 11:50:23;;;;;;;1.50;0.80;;;12.40;99.50;;;;;;4417060;32;20113;-66
2022/03/10 11:52:55;;;;;;;2.10;1.08;;;13.20;98.10;;;;;;4406318;32;20173;-66
2022/03/10 11:55:21;;;;;;;0.82;0.80;;;13.40;96.70;;;;;;4417525;32;20547;-65
2022/03/10 11:58:04;;;;;;;3.83;1.58;;;13.40;96.10;;;;;;4419731;32;20068;-65
2022/03/10 12:00:49;;;;;;;0.68;0.68;;;13.60;96.90;;;;;;4420553;32;20106;-65
2022/03/10 12:03:20;;;;;;;0.50;0.50;;;14.20;95.80;;;;;;4421442;32;20154;-66
2022/03/10 12:06:07;;;;;;;0.82;0.82;;;14.50;94.40;;;;;;4422814;32;20406;-65
2022/03/10 12:08:35;;;;;;;4.15;1.12;;;14.30;93.60;;;;;;4421646;32;20080;-66
2022/03/10 12:11:05;;;;;;;1.30;0.82;;;14.00;93.20;;;;;;4417316;32;20092;-66
2022/03/10 12:13:35;;;;;;;1.87;1.30;;;13.60;94.10;;;;;;4412357;32;20077;-66
2022/03/10 12:16:05;;;;;;;2.58;1.58;;;14.10;93.50;;;;;;4418314;32;20609;-66
2022/03/10 12:18:43;;;;;;;1.75;1.02;;;14.40;92.60;;;;;;4419208;32;20062;-65
2022/03/10 12:21:33;;;;;;;7.10;1.55;;;14.50;91.90;;;;;;4418421;32;20081;-66
2022/03/10 12:24:02;;;;;;;0.43;0.43;;;14.40;91.50;;;;;;4420922;32;20227;-66
2022/03/10 12:26:37;;;;;;;1.58;0.90;;;14.20;92.20;;;;;;4413451;32;20076;-65
2022/03/10 12:29:06;;;;;;;0.50;0.50;;;14.10;92.00;;;;;;4426736;32;20407;-66
2022/03/10 12:31:35;;;;;;;1.23;1.17;;;14.80;91.50;;;;;;4420821;32;20081;-66
2022/03/10 12:34:03;;;;;;;0.98;0.75;;;14.90;90.60;;;;;;4422985;32;20105;-66
2022/03/10 12:36:33;;;;;;;0.57;0.57;;;14.70;89.60;;;;;;4413667;32;20419;-66
2022/03/10 12:39:01;;;;;;;1.27;1.10;;;14.70;88.70;;;;;;4421735;32;20097;-66
2022/03/10 12:41:33;;;;;;;1.10;0.98;;;15.00;88.10;;;;;;4424709;32;20436;-66
2022/03/10 12:44:01;;;;;;;4.97;1.30;;;15.30;87.20;;;;;;4419286;32;20113;-67
2022/03/10 12:46:28;;;;;;;2.62;1.52;;;15.60;85.90;;;;;;4398635;32;20094;-66
2022/03/10 12:48:57;;;;;;;2.08;0.90;;;15.20;85.70;;;;;;4408557;32;20248;-66
2022/03/10 12:51:28;;;;;;;1.35;0.93;;;15.50;85.50;;;;;;4419459;32;20097;-66
2022/03/10 12:53:56;;;;;;;3.42;1.05;;;15.50;86.30;;;;;;4420226;32;20125;-68
2022/03/10 12:56:22;;;;;;;4.97;1.33;;;16.20;83.20;;;;;;4417410;32;20144;-66